Las Vegas, Nevada
Current Conditions -  °F | °C
As of 3:56 PM on Friday 19 Dec 2014 (Local Time) from KLAS Reporting Station
Broken Clouds Broken Clouds  
Wind Chill: 53°   Ceiling: 25000
Heat Index: 53°   Visibility: 10mi
Dew Point: 38°   Wind: 5mph
Humidity: 57%   Direction: 120°ESE
Pressure: 30.12"   Gusts: NA
Location:  36.17°N, 115.13°W
Report Text: KLAS 192356Z 12004KT 10SM BKN250 12/03 A3012 RMK AO2 SLP200 T01170033 10128 20094 56012
Loading
Personal Weather Stations






























Interactive Weather Map New forecast layout! Learn more

10-Day Weather Forecast

Advertisements
Track Severe Weather on mobile